sensor_id;sensor_type;location;lat;lon;timestamp;temperature;humidity
13652;DHT22;6899;51.546;6.912;2022-08-21T00:01:47;17.70;99.90
13652;DHT22;6899;51.546;6.912;2022-08-21T00:04:14;17.60;99.90
13652;DHT22;6899;51.546;6.912;2022-08-21T00:06:41;17.50;99.90
13652;DHT22;6899;51.546;6.912;2022-08-21T00:09:08;17.40;99.90
13652;DHT22;6899;51.546;6.912;2022-08-21T00:11:36;17.40;99.90
13652;DHT22;6899;51.546;6.912;2022-08-21T00:14:05;17.40;99.90
13652;DHT22;6899;51.546;6.912;2022-08-21T00:16:33;17.40;99.90
13652;DHT22;6899;51.546;6.912;2022-08-21T00:19:01;17.40;99.90
13652;DHT22;6899;51.546;6.912;2022-08-21T00:21:29;17.40;99.90
13652;DHT22;6899;51.546;6.912;2022-08-21T00:23:59;17.30;99.90
13652;DHT22;6899;51.546;6.912;2022-08-21T00:26:26;17.30;99.90
13652;DHT22;6899;51.546;6.912;2022-08-21T00:28:53;17.20;99.90
13652;DHT22;6899;51.546;6.912;2022-08-21T00:31:19;17.10;99.90
13652;DHT22;6899;51.546;6.912;2022-08-21T00:33:46;17.00;99.90
13652;DHT22;6899;51.546;6.912;2022-08-21T00:36:15;16.90;99.90
13652;DHT22;6899;51.546;6.912;2022-08-21T00:38:42;16.80;99.90
13652;DHT22;6899;51.546;6.912;2022-08-21T00:41:10;16.70;99.90
13652;DHT22;6899;51.546;6.912;2022-08-21T00:43:38;16.60;99.90
13652;DHT22;6899;51.546;6.912;2022-08-21T00:46:06;16.40;99.90
13652;DHT22;6899;51.546;6.912;2022-08-21T00:48:34;16.30;99.90
13652;DHT22;6899;51.546;6.912;2022-08-21T00:51:06;16.10;99.90
13652;DHT22;6899;51.546;6.912;2022-08-21T00:53:35;16.10;99.90
13652;DHT22;6899;51.546;6.912;2022-08-21T00:56:11;16.00;99.90
13652;DHT22;6899;51.546;6.912;2022-08-21T00:58:40;15.90;99.90
13652;DHT22;6899;51.546;6.912;2022-08-21T01:01:11;15.70;99.90
13652;DHT22;6899;51.546;6.912;2022-08-21T01:03:38;15.70;99.90
13652;DHT22;6899;51.546;6.912;2022-08-21T01:06:06;15.70;99.90
13652;DHT22;6899;51.546;6.912;2022-08-21T01:08:36;15.70;99.90
13652;DHT22;6899;51.546;6.912;2022-08-21T01:11:03;15.60;99.90
13652;DHT22;6899;51.546;6.912;2022-08-21T01:13:32;15.60;99.90
13652;DHT22;6899;51.546;6.912;2022-08-21T01:16:03;15.50;99.90
13652;DHT22;6899;51.546;6.912;2022-08-21T01:18:31;15.50;99.90
13652;DHT22;6899;51.546;6.912;2022-08-21T01:21:03;15.50;99.90
13652;DHT22;6899;51.546;6.912;2022-08-21T01:23:30;15.40;99.90
13652;DHT22;6899;51.546;6.912;2022-08-21T01:25:57;15.40;99.90
13652;DHT22;6899;51.546;6.912;2022-08-21T01:28:24;15.30;99.90
13652;DHT22;6899;51.546;6.912;2022-08-21T01:30:55;15.30;99.90
13652;DHT22;6899;51.546;6.912;2022-08-21T01:33:24;15.20;99.90
13652;DHT22;6899;51.546;6.912;2022-08-21T01:35:51;15.20;99.90
13652;DHT22;6899;51.546;6.912;2022-08-21T01:38:19;15.20;99.90
13652;DHT22;6899;51.546;6.912;2022-08-21T01:40:46;15.20;99.90
13652;DHT22;6899;51.546;6.912;2022-08-21T01:43:13;15.10;99.90
13652;DHT22;6899;51.546;6.912;2022-08-21T01:45:40;14.80;99.90
13652;DHT22;6899;51.546;6.912;2022-08-21T01:48:07;14.90;99.90
13652;DHT22;6899;51.546;6.912;2022-08-21T01:50:34;15.00;99.90
13652;DHT22;6899;51.546;6.912;2022-08-21T01:53:00;15.00;99.90
13652;DHT22;6899;51.546;6.912;2022-08-21T01:55:29;15.00;99.90
13652;DHT22;6899;51.546;6.912;2022-08-21T01:57:57;15.00;99.90
13652;DHT22;6899;51.546;6.912;2022-08-21T02:00:25;14.90;99.90
13652;DHT22;6899;51.546;6.912;2022-08-21T02:02:52;14.90;99.90
13652;DHT22;6899;51.546;6.912;2022-08-21T02:05:25;14.90;99.90
13652;DHT22;6899;51.546;6.912;2022-08-21T02:07:54;14.90;99.90
13652;DHT22;6899;51.546;6.912;2022-08-21T02:10:23;14.80;99.90
13652;DHT22;6899;51.546;6.912;2022-08-21T02:12:52;14.70;99.90
13652;DHT22;6899;51.546;6.912;2022-08-21T02:15:19;14.70;99.90
13652;DHT22;6899;51.546;6.912;2022-08-21T02:17:48;14.70;99.90
13652;DHT22;6899;51.546;6.912;2022-08-21T02:20:21;14.70;99.90
13652;DHT22;6899;51.546;6.912;2022-08-21T02:22:51;14.70;99.90
13652;DHT22;6899;51.546;6.912;2022-08-21T02:25:19;14.60;99.90
13652;DHT22;6899;51.546;6.912;2022-08-21T02:27:47;14.70;99.90
13652;DHT22;6899;51.546;6.912;2022-08-21T02:30:18;14.70;99.90
13652;DHT22;6899;51.546;6.912;2022-08-21T02:32:45;14.70;99.90
13652;DHT22;6899;51.546;6.912;2022-08-21T02:35:12;14.70;99.90
13652;DHT22;6899;51.546;6.912;2022-08-21T02:37:44;14.70;99.90
13652;DHT22;6899;51.546;6.912;2022-08-21T02:40:15;14.60;99.90
13652;DHT22;6899;51.546;6.912;2022-08-21T02:42:43;14.50;99.90
13652;DHT22;6899;51.546;6.912;2022-08-21T02:45:11;14.50;99.90
13652;DHT22;6899;51.546;6.912;2022-08-21T02:47:42;14.60;99.90
13652;DHT22;6899;51.546;6.912;2022-08-21T02:50:12;14.70;99.90
13652;DHT22;6899;51.546;6.912;2022-08-21T02:52:39;14.60;99.90
13652;DHT22;6899;51.546;6.912;2022-08-21T02:55:06;14.60;99.90
13652;DHT22;6899;51.546;6.912;2022-08-21T02:57:36;14.60;99.90
13652;DHT22;6899;51.546;6.912;2022-08-21T03:00:05;14.40;99.90
13652;DHT22;6899;51.546;6.912;2022-08-21T03:02:36;14.50;99.90
13652;DHT22;6899;51.546;6.912;2022-08-21T03:05:06;14.40;99.90
13652;DHT22;6899;51.546;6.912;2022-08-21T03:07:34;14.40;99.90
13652;DHT22;6899;51.546;6.912;2022-08-21T03:10:01;14.40;99.90
13652;DHT22;6899;51.546;6.912;2022-08-21T03:12:28;14.40;99.90
13652;DHT22;6899;51.546;6.912;2022-08-21T03:14:56;14.40;99.90
13652;DHT22;6899;51.546;6.912;2022-08-21T03:17:24;14.50;99.90
13652;DHT22;6899;51.546;6.912;2022-08-21T03:19:50;14.60;99.90
13652;DHT22;6899;51.546;6.912;2022-08-21T03:22:19;14.60;99.90
13652;DHT22;6899;51.546;6.912;2022-08-21T03:24:46;14.50;99.90
13652;DHT22;6899;51.546;6.912;2022-08-21T03:27:12;14.40;99.90
13652;DHT22;6899;51.546;6.912;2022-08-21T03:29:40;14.40;99.90
13652;DHT22;6899;51.546;6.912;2022-08-21T03:32:07;14.50;99.90
13652;DHT22;6899;51.546;6.912;2022-08-21T03:34:35;14.60;99.90
13652;DHT22;6899;51.546;6.912;2022-08-21T03:37:03;14.60;99.90
13652;DHT22;6899;51.546;6.912;2022-08-21T03:39:31;14.60;99.90
13652;DHT22;6899;51.546;6.912;2022-08-21T03:41:59;14.60;99.90
13652;DHT22;6899;51.546;6.912;2022-08-21T03:44:26;14.70;99.90
13652;DHT22;6899;51.546;6.912;2022-08-21T03:46:56;14.60;99.90
13652;DHT22;6899;51.546;6.912;2022-08-21T03:49:27;14.60;99.90
13652;DHT22;6899;51.546;6.912;2022-08-21T03:51:54;14.60;99.90
13652;DHT22;6899;51.546;6.912;2022-08-21T03:54:21;14.60;99.90
13652;DHT22;6899;51.546;6.912;2022-08-21T03:56:49;14.60;99.90
13652;DHT22;6899;51.546;6.912;2022-08-21T03:59:16;14.50;99.90
13652;DHT22;6899;51.546;6.912;2022-08-21T04:01:51;14.50;99.90
13652;DHT22;6899;51.546;6.912;2022-08-21T04:04:18;14.40;99.90
13652;DHT22;6899;51.546;6.912;2022-08-21T04:06:45;14.40;99.90
13652;DHT22;6899;51.546;6.912;2022-08-21T04:09:15;14.40;99.90
13652;DHT22;6899;51.546;6.912;2022-08-21T04:11:42;14.30;99.90
13652;DHT22;6899;51.546;6.912;2022-08-21T04:14:10;14.20;99.90
13652;DHT22;6899;51.546;6.912;2022-08-21T04:16:37;14.10;99.90
13652;DHT22;6899;51.546;6.912;2022-08-21T04:19:04;14.00;99.90
13652;DHT22;6899;51.546;6.912;2022-08-21T04:21:31;14.10;99.90
13652;DHT22;6899;51.546;6.912;2022-08-21T04:23:58;14.20;99.90
13652;DHT22;6899;51.546;6.912;2022-08-21T04:26:25;14.20;99.90
13652;DHT22;6899;51.546;6.912;2022-08-21T04:28:56;14.10;99.90
13652;DHT22;6899;51.546;6.912;2022-08-21T04:31:25;14.00;99.90
13652;DHT22;6899;51.546;6.912;2022-08-21T04:33:52;14.10;99.90
13652;DHT22;6899;51.546;6.912;2022-08-21T04:36:18;14.10;99.90
13652;DHT22;6899;51.546;6.912;2022-08-21T04:38:45;14.10;99.90
13652;DHT22;6899;51.546;6.912;2022-08-21T04:41:12;14.10;99.90
13652;DHT22;6899;51.546;6.912;2022-08-21T04:43:40;14.20;99.90
13652;DHT22;6899;51.546;6.912;2022-08-21T04:46:07;14.30;99.90
13652;DHT22;6899;51.546;6.912;2022-08-21T04:48:35;14.30;99.90
13652;DHT22;6899;51.546;6.912;2022-08-21T04:51:07;14.40;99.90
13652;DHT22;6899;51.546;6.912;2022-08-21T04:53:38;14.50;99.90
13652;DHT22;6899;51.546;6.912;2022-08-21T04:56:10;14.50;99.90
13652;DHT22;6899;51.546;6.912;2022-08-21T04:58:39;14.60;99.90
13652;DHT22;6899;51.546;6.912;2022-08-21T05:01:13;14.60;99.90
13652;DHT22;6899;51.546;6.912;2022-08-21T05:03:42;14.60;99.90
13652;DHT22;6899;51.546;6.912;2022-08-21T05:06:12;14.70;99.90
13652;DHT22;6899;51.546;6.912;2022-08-21T05:08:40;14.70;99.90
13652;DHT22;6899;51.546;6.912;2022-08-21T05:11:10;14.80;99.90
13652;DHT22;6899;51.546;6.912;2022-08-21T05:13:37;14.80;99.90
13652;DHT22;6899;51.546;6.912;2022-08-21T05:16:06;14.90;99.90
13652;DHT22;6899;51.546;6.912;2022-08-21T05:18:33;15.00;99.90
13652;DHT22;6899;51.546;6.912;2022-08-21T05:21:02;14.90;99.90
13652;DHT22;6899;51.546;6.912;2022-08-21T05:23:32;15.00;99.90
13652;DHT22;6899;51.546;6.912;2022-08-21T05:25:59;15.00;99.90
13652;DHT22;6899;51.546;6.912;2022-08-21T05:28:26;15.10;99.90
13652;DHT22;6899;51.546;6.912;2022-08-21T05:30:53;15.20;99.90
13652;DHT22;6899;51.546;6.912;2022-08-21T05:33:20;15.20;99.90
13652;DHT22;6899;51.546;6.912;2022-08-21T05:35:49;15.20;99.90
13652;DHT22;6899;51.546;6.912;2022-08-21T05:38:17;15.30;99.90
13652;DHT22;6899;51.546;6.912;2022-08-21T05:40:45;15.30;99.90
13652;DHT22;6899;51.546;6.912;2022-08-21T05:43:13;15.40;99.90
13652;DHT22;6899;51.546;6.912;2022-08-21T05:45:40;15.50;99.90
13652;DHT22;6899;51.546;6.912;2022-08-21T05:48:08;15.50;99.90
13652;DHT22;6899;51.546;6.912;2022-08-21T05:50:35;15.70;99.90
13652;DHT22;6899;51.546;6.912;2022-08-21T05:53:03;15.70;99.90
13652;DHT22;6899;51.546;6.912;2022-08-21T05:55:31;15.70;99.90
13652;DHT22;6899;51.546;6.912;2022-08-21T05:57:58;15.80;99.90
13652;DHT22;6899;51.546;6.912;2022-08-21T06:00:25;15.80;99.90
13652;DHT22;6899;51.546;6.912;2022-08-21T06:02:52;16.00;99.90
13652;DHT22;6899;51.546;6.912;2022-08-21T06:05:19;16.00;99.90
13652;DHT22;6899;51.546;6.912;2022-08-21T06:07:46;16.20;99.90
13652;DHT22;6899;51.546;6.912;2022-08-21T06:10:12;16.30;99.90
13652;DHT22;6899;51.546;6.912;2022-08-21T06:12:44;16.80;99.90
13652;DHT22;6899;51.546;6.912;2022-08-21T06:15:11;18.10;99.90
13652;DHT22;6899;51.546;6.912;2022-08-21T06:17:38;19.70;99.90
13652;DHT22;6899;51.546;6.912;2022-08-21T06:20:06;21.00;99.90
13652;DHT22;6899;51.546;6.912;2022-08-21T06:22:33;22.20;99.90
13652;DHT22;6899;51.546;6.912;2022-08-21T06:25:03;23.20;99.90
13652;DHT22;6899;51.546;6.912;2022-08-21T06:27:33;23.60;99.90
13652;DHT22;6899;51.546;6.912;2022-08-21T06:30:08;24.40;99.90
13652;DHT22;6899;51.546;6.912;2022-08-21T06:32:36;24.80;99.90
13652;DHT22;6899;51.546;6.912;2022-08-21T06:35:04;25.20;94.90
13652;DHT22;6899;51.546;6.912;2022-08-21T06:37:32;25.50;96.20
13652;DHT22;6899;51.546;6.912;2022-08-21T06:39:59;25.20;90.80
13652;DHT22;6899;51.546;6.912;2022-08-21T06:42:26;25.00;92.10
13652;DHT22;6899;51.546;6.912;2022-08-21T06:44:57;25.70;90.60
13652;DHT22;6899;51.546;6.912;2022-08-21T06:47:25;25.60;83.90
13652;DHT22;6899;51.546;6.912;2022-08-21T06:49:52;25.80;84.60
13652;DHT22;6899;51.546;6.912;2022-08-21T06:52:19;26.10;81.30
13652;DHT22;6899;51.546;6.912;2022-08-21T06:54:46;26.20;74.70
13652;DHT22;6899;51.546;6.912;2022-08-21T06:57:13;26.90;78.00
13652;DHT22;6899;51.546;6.912;2022-08-21T06:59:45;27.20;72.80
13652;DHT22;6899;51.546;6.912;2022-08-21T07:02:14;27.50;69.20
13652;DHT22;6899;51.546;6.912;2022-08-21T07:04:42;27.80;67.30
13652;DHT22;6899;51.546;6.912;2022-08-21T07:07:09;27.90;66.50
13652;DHT22;6899;51.546;6.912;2022-08-21T07:09:36;28.00;65.00
13652;DHT22;6899;51.546;6.912;2022-08-21T07:12:03;27.60;64.60
13652;DHT22;6899;51.546;6.912;2022-08-21T07:14:30;27.70;65.90
13652;DHT22;6899;51.546;6.912;2022-08-21T07:17:00;27.40;64.50
13652;DHT22;6899;51.546;6.912;2022-08-21T07:19:27;27.70;64.90
13652;DHT22;6899;51.546;6.912;2022-08-21T07:21:58;27.80;63.30
13652;DHT22;6899;51.546;6.912;2022-08-21T07:24:26;27.20;64.80
13652;DHT22;6899;51.546;6.912;2022-08-21T07:26:53;27.40;67.30
13652;DHT22;6899;51.546;6.912;2022-08-21T07:29:20;27.90;63.30
13652;DHT22;6899;51.546;6.912;2022-08-21T07:31:47;27.50;63.20
13652;DHT22;6899;51.546;6.912;2022-08-21T07:34:17;27.80;63.40
13652;DHT22;6899;51.546;6.912;2022-08-21T07:36:44;28.00;62.60
13652;DHT22;6899;51.546;6.912;2022-08-21T07:39:13;27.90;60.80
13652;DHT22;6899;51.546;6.912;2022-08-21T07:41:40;27.80;61.70
13652;DHT22;6899;51.546;6.912;2022-08-21T07:44:07;28.10;61.40
13652;DHT22;6899;51.546;6.912;2022-08-21T07:46:34;28.20;59.80
13652;DHT22;6899;51.546;6.912;2022-08-21T07:49:01;28.10;58.30
13652;DHT22;6899;51.546;6.912;2022-08-21T07:51:29;27.20;58.50
13652;DHT22;6899;51.546;6.912;2022-08-21T07:53:57;27.00;60.60
13652;DHT22;6899;51.546;6.912;2022-08-21T07:56:30;26.80;60.20
13652;DHT22;6899;51.546;6.912;2022-08-21T07:58:57;26.50;61.90
13652;DHT22;6899;51.546;6.912;2022-08-21T08:01:24;26.90;62.60
13652;DHT22;6899;51.546;6.912;2022-08-21T08:03:51;26.80;60.70
13652;DHT22;6899;51.546;6.912;2022-08-21T08:06:21;26.70;60.90
13652;DHT22;6899;51.546;6.912;2022-08-21T08:08:49;26.70;61.70
13652;DHT22;6899;51.546;6.912;2022-08-21T08:11:15;27.10;60.10
13652;DHT22;6899;51.546;6.912;2022-08-21T08:13:49;27.60;61.00
13652;DHT22;6899;51.546;6.912;2022-08-21T08:16:16;27.50;59.20
13652;DHT22;6899;51.546;6.912;2022-08-21T08:18:44;27.90;58.40
13652;DHT22;6899;51.546;6.912;2022-08-21T08:21:12;27.30;57.10
13652;DHT22;6899;51.546;6.912;2022-08-21T08:23:39;27.10;58.40
13652;DHT22;6899;51.546;6.912;2022-08-21T08:26:06;27.20;59.20
13652;DHT22;6899;51.546;6.912;2022-08-21T08:28:33;27.50;57.20
13652;DHT22;6899;51.546;6.912;2022-08-21T08:31:02;27.90;56.20
13652;DHT22;6899;51.546;6.912;2022-08-21T08:33:29;28.00;54.80
13652;DHT22;6899;51.546;6.912;2022-08-21T08:35:56;28.10;55.00
13652;DHT22;6899;51.546;6.912;2022-08-21T08:38:24;27.40;54.20
13652;DHT22;6899;51.546;6.912;2022-08-21T08:40:55;27.00;55.90
13652;DHT22;6899;51.546;6.912;2022-08-21T08:43:26;26.80;57.60
13652;DHT22;6899;51.546;6.912;2022-08-21T08:45:56;26.90;56.10
13652;DHT22;6899;51.546;6.912;2022-08-21T08:48:36;27.50;57.00
13652;DHT22;6899;51.546;6.912;2022-08-21T08:51:07;27.10;57.10
13652;DHT22;6899;51.546;6.912;2022-08-21T08:53:47;27.50;57.60
13652;DHT22;6899;51.546;6.912;2022-08-21T08:56:22;27.80;55.50
13652;DHT22;6899;51.546;6.912;2022-08-21T08:58:52;28.00;54.60
13652;DHT22;6899;51.546;6.912;2022-08-21T09:01:20;28.00;54.60
13652;DHT22;6899;51.546;6.912;2022-08-21T09:03:49;28.20;55.70
13652;DHT22;6899;51.546;6.912;2022-08-21T09:06:34;28.10;54.40
13652;DHT22;6899;51.546;6.912;2022-08-21T09:09:16;27.90;52.80
13652;DHT22;6899;51.546;6.912;2022-08-21T09:11:52;27.50;55.20
13652;DHT22;6899;51.546;6.912;2022-08-21T09:14:26;27.20;54.40
13652;DHT22;6899;51.546;6.912;2022-08-21T09:17:08;26.10;56.20
13652;DHT22;6899;51.546;6.912;2022-08-21T09:19:52;26.10;59.50
13652;DHT22;6899;51.546;6.912;2022-08-21T09:22:28;26.80;56.80
13652;DHT22;6899;51.546;6.912;2022-08-21T09:25:04;26.50;57.30
13652;DHT22;6899;51.546;6.912;2022-08-21T09:27:35;26.90;58.10
13652;DHT22;6899;51.546;6.912;2022-08-21T09:30:04;27.50;57.00
13652;DHT22;6899;51.546;6.912;2022-08-21T09:32:33;27.80;54.70
13652;DHT22;6899;51.546;6.912;2022-08-21T09:35:06;27.60;53.30
13652;DHT22;6899;51.546;6.912;2022-08-21T09:37:44;27.50;56.10
13652;DHT22;6899;51.546;6.912;2022-08-21T09:40:21;27.30;56.20
13652;DHT22;6899;51.546;6.912;2022-08-21T09:42:55;27.30;55.20
13652;DHT22;6899;51.546;6.912;2022-08-21T09:45:23;27.50;57.70
13652;DHT22;6899;51.546;6.912;2022-08-21T09:47:50;27.70;56.10
13652;DHT22;6899;51.546;6.912;2022-08-21T09:50:22;27.30;54.60
13652;DHT22;6899;51.546;6.912;2022-08-21T09:52:51;27.00;56.10
13652;DHT22;6899;51.546;6.912;2022-08-21T09:55:26;26.80;56.80
13652;DHT22;6899;51.546;6.912;2022-08-21T09:58:15;26.60;57.40
13652;DHT22;6899;51.546;6.912;2022-08-21T10:00:43;27.00;58.20
13652;DHT22;6899;51.546;6.912;2022-08-21T10:03:14;26.60;57.50
13652;DHT22;6899;51.546;6.912;2022-08-21T10:05:53;27.10;56.70
13652;DHT22;6899;51.546;6.912;2022-08-21T10:08:25;27.30;57.80
13652;DHT22;6899;51.546;6.912;2022-08-21T10:10:56;27.40;57.70
13652;DHT22;6899;51.546;6.912;2022-08-21T10:13:30;27.40;55.40
13652;DHT22;6899;51.546;6.912;2022-08-21T10:16:08;26.80;58.20
13652;DHT22;6899;51.546;6.912;2022-08-21T10:18:40;26.90;56.20
13652;DHT22;6899;51.546;6.912;2022-08-21T10:21:18;26.90;57.60
13652;DHT22;6899;51.546;6.912;2022-08-21T10:23:54;27.20;55.80
13652;DHT22;6899;51.546;6.912;2022-08-21T10:26:34;26.80;56.80
13652;DHT22;6899;51.546;6.912;2022-08-21T10:29:12;26.50;56.70
13652;DHT22;6899;51.546;6.912;2022-08-21T10:31:48;26.90;57.10
13652;DHT22;6899;51.546;6.912;2022-08-21T10:34:32;26.90;56.70
13652;DHT22;6899;51.546;6.912;2022-08-21T10:37:15;27.00;56.60
13652;DHT22;6899;51.546;6.912;2022-08-21T10:39:51;27.20;56.80
13652;DHT22;6899;51.546;6.912;2022-08-21T10:42:28;27.40;54.50
13652;DHT22;6899;51.546;6.912;2022-08-21T10:45:14;27.40;55.40
13652;DHT22;6899;51.546;6.912;2022-08-21T10:47:47;27.70;56.20
13652;DHT22;6899;51.546;6.912;2022-08-21T10:50:27;27.60;57.20
13652;DHT22;6899;51.546;6.912;2022-08-21T10:53:22;27.90;
13652;DHT22;6899;51.546;6.912;2022-08-21T10:56:00;27.90;55.20
13652;DHT22;6899;51.546;6.912;2022-08-21T10:58:31;28.20;55.30
13652;DHT22;6899;51.546;6.912;2022-08-21T11:01:07;28.60;53.70
13652;DHT22;6899;51.546;6.912;2022-08-21T11:03:41;28.70;50.80
13652;DHT22;6899;51.546;6.912;2022-08-21T11:06:11;28.00;52.30
13652;DHT22;6899;51.546;6.912;2022-08-21T11:08:42;27.40;54.30
13652;DHT22;6899;51.546;6.912;2022-08-21T11:11:17;27.30;54.60
13652;DHT22;6899;51.546;6.912;2022-08-21T11:13:47;27.30;54.50
13652;DHT22;6899;51.546;6.912;2022-08-21T11:16:18;27.40;54.40
13652;DHT22;6899;51.546;6.912;2022-08-21T11:18:50;27.70;54.00
13652;DHT22;6899;51.546;6.912;2022-08-21T11:21:29;28.00;53.10
13652;DHT22;6899;51.546;6.912;2022-08-21T11:24:07;28.10;53.50
13652;DHT22;6899;51.546;6.912;2022-08-21T11:26:45;28.70;52.30
13652;DHT22;6899;51.546;6.912;2022-08-21T11:29:19;29.30;50.90
13652;DHT22;6899;51.546;6.912;2022-08-21T11:32:11;29.50;51.40
13652;DHT22;6899;51.546;6.912;2022-08-21T11:34:54;29.00;51.90
13652;DHT22;6899;51.546;6.912;2022-08-21T11:37:46;28.50;53.50
13652;DHT22;6899;51.546;6.912;2022-08-21T11:40:24;28.50;52.40
13652;DHT22;6899;51.546;6.912;2022-08-21T11:43:00;29.00;52.70
13652;DHT22;6899;51.546;6.912;2022-08-21T11:45:39;29.20;51.40
13652;DHT22;6899;51.546;6.912;2022-08-21T11:48:15;29.00;51.30
13652;DHT22;6899;51.546;6.912;2022-08-21T11:50:48;28.70;52.00
13652;DHT22;6899;51.546;6.912;2022-08-21T11:53:20;28.50;51.40
13652;DHT22;6899;51.546;6.912;2022-08-21T11:55:55;28.00;53.00
13652;DHT22;6899;51.546;6.912;2022-08-21T11:58:27;27.60;52.80
13652;DHT22;6899;51.546;6.912;2022-08-21T12:00:57;27.80;54.10
13652;DHT22;6899;51.546;6.912;2022-08-21T12:03:27;28.50;52.00
13652;DHT22;6899;51.546;6.912;2022-08-21T12:05:56;29.40;53.20
13652;DHT22;6899;51.546;6.912;2022-08-21T12:08:33;29.80;52.10
13652;DHT22;6899;51.546;6.912;2022-08-21T12:11:05;30.00;49.40
13652;DHT22;6899;51.546;6.912;2022-08-21T12:13:35;30.30;48.70
13652;DHT22;6899;51.546;6.912;2022-08-21T12:16:07;30.50;48.90
13652;DHT22;6899;51.546;6.912;2022-08-21T12:18:35;30.80;48.40
13652;DHT22;6899;51.546;6.912;2022-08-21T12:21:23;30.50;48.60
13652;DHT22;6899;51.546;6.912;2022-08-21T12:24:04;30.50;47.10
13652;DHT22;6899;51.546;6.912;2022-08-21T12:26:34;30.50;47.30
13652;DHT22;6899;51.546;6.912;2022-08-21T12:29:12;30.80;47.90
13652;DHT22;6899;51.546;6.912;2022-08-21T12:31:50;30.50;48.70
13652;DHT22;6899;51.546;6.912;2022-08-21T12:34:23;30.80;47.50
13652;DHT22;6899;51.546;6.912;2022-08-21T12:36:57;30.60;46.00
13652;DHT22;6899;51.546;6.912;2022-08-21T12:39:28;30.10;47.00
13652;DHT22;6899;51.546;6.912;2022-08-21T12:41:59;29.80;47.50
13652;DHT22;6899;51.546;6.912;2022-08-21T12:44:35;29.80;47.60
13652;DHT22;6899;51.546;6.912;2022-08-21T12:47:05;29.20;46.80
13652;DHT22;6899;51.546;6.912;2022-08-21T12:49:35;29.30;47.90
13652;DHT22;6899;51.546;6.912;2022-08-21T12:52:09;29.70;47.40
13652;DHT22;6899;51.546;6.912;2022-08-21T12:54:41;29.70;46.60
13652;DHT22;6899;51.546;6.912;2022-08-21T12:57:21;29.70;47.20
13652;DHT22;6899;51.546;6.912;2022-08-21T12:59:54;29.80;47.50
13652;DHT22;6899;51.546;6.912;2022-08-21T13:02:25;29.60;46.40
13652;DHT22;6899;51.546;6.912;2022-08-21T13:04:53;29.60;47.90
13652;DHT22;6899;51.546;6.912;2022-08-21T13:07:25;29.50;48.90
13652;DHT22;6899;51.546;6.912;2022-08-21T13:09:55;29.80;47.10
13652;DHT22;6899;51.546;6.912;2022-08-21T13:12:23;30.00;48.50
13652;DHT22;6899;51.546;6.912;2022-08-21T13:14:54;29.70;46.60
13652;DHT22;6899;51.546;6.912;2022-08-21T13:17:24;29.60;49.00
13652;DHT22;6899;51.546;6.912;2022-08-21T13:19:56;30.00;47.80
13652;DHT22;6899;51.546;6.912;2022-08-21T13:22:24;30.00;47.30
13652;DHT22;6899;51.546;6.912;2022-08-21T13:24:51;30.10;46.90
13652;DHT22;6899;51.546;6.912;2022-08-21T13:27:25;30.10;48.00
13652;DHT22;6899;51.546;6.912;2022-08-21T13:30:09;29.60;48.40
13652;DHT22;6899;51.546;6.912;2022-08-21T13:32:40;28.40;48.40
13652;DHT22;6899;51.546;6.912;2022-08-21T13:35:10;27.60;50.40
13652;DHT22;6899;51.546;6.912;2022-08-21T13:37:39;27.10;51.60
13652;DHT22;6899;51.546;6.912;2022-08-21T13:40:09;27.40;52.80
13652;DHT22;6899;51.546;6.912;2022-08-21T13:42:40;28.30;53.10
13652;DHT22;6899;51.546;6.912;2022-08-21T13:45:14;28.60;51.10
13652;DHT22;6899;51.546;6.912;2022-08-21T13:47:42;28.60;50.10
13652;DHT22;6899;51.546;6.912;2022-08-21T13:50:14;28.50;50.50
13652;DHT22;6899;51.546;6.912;2022-08-21T13:52:53;28.20;49.90
13652;DHT22;6899;51.546;6.912;2022-08-21T13:55:21;27.90;52.70
13652;DHT22;6899;51.546;6.912;2022-08-21T13:57:59;27.60;52.80
13652;DHT22;6899;51.546;6.912;2022-08-21T14:00:29;27.50;53.30
13652;DHT22;6899;51.546;6.912;2022-08-21T14:03:04;27.60;54.30
13652;DHT22;6899;51.546;6.912;2022-08-21T14:05:33;28.20;52.70
13652;DHT22;6899;51.546;6.912;2022-08-21T14:08:12;27.70;51.40
13652;DHT22;6899;51.546;6.912;2022-08-21T14:10:42;27.60;52.30
13652;DHT22;6899;51.546;6.912;2022-08-21T14:13:26;27.00;52.80
13652;DHT22;6899;51.546;6.912;2022-08-21T14:15:58;26.60;53.00
13652;DHT22;6899;51.546;6.912;2022-08-21T14:18:25;26.40;55.20
13652;DHT22;6899;51.546;6.912;2022-08-21T14:21:04;26.40;54.50
13652;DHT22;6899;51.546;6.912;2022-08-21T14:23:31;26.30;54.90
13652;DHT22;6899;51.546;6.912;2022-08-21T14:26:00;26.10;54.10
13652;DHT22;6899;51.546;6.912;2022-08-21T14:28:31;26.20;55.10
13652;DHT22;6899;51.546;6.912;2022-08-21T14:31:11;26.00;54.40
13652;DHT22;6899;51.546;6.912;2022-08-21T14:33:42;25.90;54.80
13652;DHT22;6899;51.546;6.912;2022-08-21T14:36:09;26.00;56.20
13652;DHT22;6899;51.546;6.912;2022-08-21T14:38:37;26.00;54.40
13652;DHT22;6899;51.546;6.912;2022-08-21T14:41:13;26.10;54.20
13652;DHT22;6899;51.546;6.912;2022-08-21T14:43:45;26.20;55.50
13652;DHT22;6899;51.546;6.912;2022-08-21T14:46:22;27.00;55.90
13652;DHT22;6899;51.546;6.912;2022-08-21T14:48:49;27.50;52.30
13652;DHT22;6899;51.546;6.912;2022-08-21T14:51:20;28.10;53.80
13652;DHT22;6899;51.546;6.912;2022-08-21T14:53:51;28.20;53.30
13652;DHT22;6899;51.546;6.912;2022-08-21T14:56:24;29.30;52.90
13652;DHT22;6899;51.546;6.912;2022-08-21T14:58:52;29.70;49.40
13652;DHT22;6899;51.546;6.912;2022-08-21T15:01:22;29.90;48.80
13652;DHT22;6899;51.546;6.912;2022-08-21T15:03:52;30.20;48.70
13652;DHT22;6899;51.546;6.912;2022-08-21T15:06:19;30.20;48.20
13652;DHT22;6899;51.546;6.912;2022-08-21T15:08:47;30.50;48.10
13652;DHT22;6899;51.546;6.912;2022-08-21T15:11:17;30.60;47.20
13652;DHT22;6899;51.546;6.912;2022-08-21T15:13:45;30.20;47.70
13652;DHT22;6899;51.546;6.912;2022-08-21T15:16:13;30.20;46.70
13652;DHT22;6899;51.546;6.912;2022-08-21T15:18:41;29.90;46.60
13652;DHT22;6899;51.546;6.912;2022-08-21T15:21:08;30.00;47.20
13652;DHT22;6899;51.546;6.912;2022-08-21T15:23:35;30.10;46.30
13652;DHT22;6899;51.546;6.912;2022-08-21T15:26:04;29.20;48.00
13652;DHT22;6899;51.546;6.912;2022-08-21T15:28:31;28.90;48.00
13652;DHT22;6899;51.546;6.912;2022-08-21T15:30:59;28.20;48.80
13652;DHT22;6899;51.546;6.912;2022-08-21T15:33:29;27.70;49.40
13652;DHT22;6899;51.546;6.912;2022-08-21T15:35:58;27.90;50.70
13652;DHT22;6899;51.546;6.912;2022-08-21T15:38:25;28.80;50.80
13652;DHT22;6899;51.546;6.912;2022-08-21T15:40:52;29.40;47.90
13652;DHT22;6899;51.546;6.912;2022-08-21T15:43:24;30.20;47.60
13652;DHT22;6899;51.546;6.912;2022-08-21T15:45:52;30.30;45.50
13652;DHT22;6899;51.546;6.912;2022-08-21T15:48:19;30.10;46.80
13652;DHT22;6899;51.546;6.912;2022-08-21T15:50:46;29.80;47.00
13652;DHT22;6899;51.546;6.912;2022-08-21T15:53:15;29.90;47.60
13652;DHT22;6899;51.546;6.912;2022-08-21T15:55:42;30.40;47.30
13652;DHT22;6899;51.546;6.912;2022-08-21T15:58:13;30.70;47.70
13652;DHT22;6899;51.546;6.912;2022-08-21T16:00:41;30.50;46.40
13652;DHT22;6899;51.546;6.912;2022-08-21T16:03:11;30.60;47.20
13652;DHT22;6899;51.546;6.912;2022-08-21T16:05:40;30.40;44.10
13652;DHT22;6899;51.546;6.912;2022-08-21T16:08:08;30.20;45.60